createdAt,value
2023-10-14T00:01:34.517Z,99651.13
2023-10-14T00:04:02.694Z,99638.56
2023-10-14T00:06:29.402Z,99643.94
2023-10-14T00:08:56.022Z,99642.91
2023-10-14T00:11:24.939Z,99646.41
2023-10-14T00:13:51.640Z,99650.31
2023-10-14T00:16:19.741Z,99649.31
2023-10-14T00:18:46.539Z,99649.84
2023-10-14T00:21:15.460Z,99644.50
2023-10-14T00:23:42.097Z,99643.84
2023-10-14T00:26:08.747Z,99642.63
2023-10-14T00:28:35.471Z,99646.31
2023-10-14T00:31:02.158Z,99649.22
2023-10-14T00:33:28.789Z,99672.16
2023-10-14T00:35:55.531Z,99658.19
2023-10-14T00:38:23.768Z,99675.09
2023-10-14T00:40:50.498Z,99674.66
2023-10-14T00:43:17.190Z,99672.59
2023-10-14T00:45:46.719Z,99675.06
2023-10-14T00:48:13.709Z,99669.94
2023-10-14T00:50:40.639Z,99676.91
2023-10-14T00:53:07.517Z,99663.16
2023-10-14T00:55:36.806Z,99670.13
2023-10-14T00:58:03.672Z,99673.03
2023-10-14T01:00:30.364Z,99667.25
2023-10-14T01:02:57.039Z,99668.31
2023-10-14T01:05:23.727Z,99666.03
2023-10-14T01:07:50.399Z,99672.41
2023-10-14T01:10:17.249Z,99676.31
2023-10-14T01:12:45.440Z,99681.66
2023-10-14T01:15:12.351Z,99683.50
2023-10-14T01:17:39.061Z,99684.09
2023-10-14T01:20:09.200Z,99684.13
2023-10-14T01:22:37.240Z,99683.50
2023-10-14T01:25:04.183Z,99682.06
2023-10-14T01:27:30.654Z,99683.50
2023-10-14T01:29:57.354Z,99689.25
2023-10-14T01:32:28.153Z,99687.78
2023-10-14T01:34:54.899Z,99711.19
2023-10-14T01:37:21.513Z,99700.06
2023-10-14T01:39:49.651Z,99707.41
2023-10-14T01:42:16.601Z,99695.63
2023-10-14T01:44:43.133Z,99699.47
2023-10-14T01:47:09.791Z,99682.59
2023-10-14T01:49:37.273Z,99689.59
2023-10-14T01:52:04.352Z,99681.91
2023-10-14T01:54:31.152Z,99685.78
2023-10-14T01:56:59.204Z,99667.69
2023-10-14T01:59:25.857Z,99669.41
2023-10-14T02:01:52.612Z,99653.59
2023-10-14T02:04:19.656Z,99665.25
2023-10-14T02:06:46.510Z,99653.53
2023-10-14T02:09:13.248Z,99653.75
2023-10-14T02:11:40.764Z,99659.91
2023-10-14T02:14:10.046Z,99686.78
2023-10-14T02:16:37.642Z,99744.25
2023-10-14T02:19:04.740Z,99766.25
2023-10-14T02:21:31.293Z,99768.13
2023-10-14T02:23:58.037Z,99787.25
2023-10-14T02:26:24.804Z,99810.38
2023-10-14T02:28:52.196Z,99819.06
2023-10-14T02:31:23.082Z,99820.44
2023-10-14T02:33:50.923Z,99832.78
2023-10-14T02:36:18.513Z,99841.00
2023-10-14T02:38:45.801Z,99848.16
2023-10-14T02:41:12.528Z,99862.31
2023-10-14T02:43:39.212Z,99864.50
2023-10-14T02:46:05.944Z,99874.81
2023-10-14T02:48:34.867Z,99884.63
2023-10-14T02:51:01.529Z,99899.34
2023-10-14T02:53:28.258Z,99902.34
2023-10-14T02:55:55.723Z,99915.47
2023-10-14T02:58:22.451Z,99924.09
2023-10-14T03:00:49.219Z,99942.47
2023-10-14T03:03:16.937Z,99939.34
2023-10-14T03:05:45.097Z,99952.94
2023-10-14T03:08:11.878Z,99960.56
2023-10-14T03:10:40.277Z,99964.38
2023-10-14T03:13:08.005Z,99975.81
2023-10-14T03:15:34.676Z,99976.13
2023-10-14T03:18:01.347Z,99987.22
2023-10-14T03:20:29.779Z,99993.88
2023-10-14T03:23:05.581Z,99997.19
2023-10-14T03:25:32.184Z,100013.78
2023-10-14T03:27:58.996Z,100023.06
2023-10-14T03:30:26.971Z,100037.97
2023-10-14T03:32:53.758Z,100040.28
2023-10-14T03:35:20.962Z,100067.81
2023-10-14T03:37:47.473Z,100078.75
2023-10-14T03:40:15.462Z,100084.50
2023-10-14T03:42:42.163Z,100102.47
2023-10-14T03:45:09.568Z,100103.56
2023-10-14T03:47:36.282Z,100114.66
2023-10-14T03:50:02.953Z,100125.22
2023-10-14T03:52:29.665Z,100130.53
2023-10-14T03:54:56.482Z,100146.06
2023-10-14T03:57:24.585Z,100162.25
2023-10-14T03:59:51.331Z,100179.75
2023-10-14T04:02:18.039Z,100193.34
2023-10-14T04:04:45.180Z,100200.31
2023-10-14T04:07:11.837Z,100207.69
2023-10-14T04:09:39.077Z,100213.03
2023-10-14T04:12:06.570Z,100215.47
2023-10-14T04:14:36.318Z,100222.03
2023-10-14T04:17:03.428Z,100229.41
2023-10-14T04:19:30.164Z,100239.34
2023-10-14T04:21:57.681Z,100239.72
2023-10-14T04:24:24.353Z,100248.13
2023-10-14T04:26:51.022Z,100247.09
2023-10-14T04:29:17.697Z,100258.38
2023-10-14T04:31:46.110Z,100268.13
2023-10-14T04:34:12.835Z,100273.81
2023-10-14T04:36:39.530Z,100278.13
2023-10-14T04:39:06.691Z,100281.47
2023-10-14T04:41:33.324Z,100290.75
2023-10-14T04:43:59.945Z,100290.38
2023-10-14T04:46:26.756Z,100298.84
2023-10-14T04:48:55.021Z,100301.81
2023-10-14T04:51:23.348Z,100301.34
2023-10-14T04:53:50.146Z,100312.78
2023-10-14T04:56:17.224Z,100311.63
2023-10-14T04:58:45.198Z,100315.56
2023-10-14T05:01:11.942Z,100326.00
2023-10-14T05:03:38.771Z,100341.31
2023-10-14T05:06:11.444Z,100341.03
2023-10-14T05:08:38.641Z,100355.25
2023-10-14T05:11:05.350Z,100356.31
2023-10-14T05:13:32.859Z,100365.25
2023-10-14T05:15:59.601Z,100375.84
2023-10-14T05:18:26.247Z,100378.09
2023-10-14T05:20:54.672Z,100390.63
2023-10-14T05:23:23.042Z,100387.59
2023-10-14T05:25:49.774Z,100405.69
2023-10-14T05:28:16.530Z,100401.25
2023-10-14T05:30:43.566Z,100406.69
2023-10-14T05:33:10.276Z,100409.22
2023-10-14T05:35:41.910Z,100412.41
2023-10-14T05:38:08.750Z,100423.56
2023-10-14T05:40:37.687Z,100431.38
2023-10-14T05:43:04.775Z,100435.84
2023-10-14T05:45:31.397Z,100439.88
2023-10-14T05:47:58.072Z,100444.75
2023-10-14T05:50:24.752Z,100455.22
2023-10-14T05:52:51.348Z,100460.38
2023-10-14T05:55:18.015Z,100457.88
2023-10-14T05:57:47.929Z,100465.09
2023-10-14T06:00:16.097Z,100472.59
2023-10-14T06:02:42.796Z,100476.50
2023-10-14T06:05:09.610Z,100489.59
2023-10-14T06:07:36.252Z,100491.41
2023-10-14T06:10:03.306Z,100496.81
2023-10-14T06:12:30.150Z,100495.31
2023-10-14T06:14:58.309Z,100502.28
2023-10-14T06:17:25.097Z,100507.41
2023-10-14T06:19:51.799Z,100516.44
2023-10-14T06:22:18.543Z,100511.28
2023-10-14T06:24:45.483Z,100529.66
2023-10-14T06:27:14.552Z,100524.94
2023-10-14T06:29:41.164Z,100538.16
2023-10-14T06:32:20.132Z,100540.25
2023-10-14T06:34:47.313Z,100541.34
2023-10-14T06:37:15.635Z,100546.38
2023-10-14T06:39:42.403Z,100544.97
2023-10-14T06:42:09.045Z,100549.56
2023-10-14T06:44:35.709Z,100549.69
2023-10-14T06:47:02.393Z,100554.16
2023-10-14T06:49:31.602Z,100560.56
2023-10-14T06:51:58.481Z,100564.31
2023-10-14T06:54:25.229Z,100567.50
2023-10-14T06:56:52.321Z,100576.41
2023-10-14T06:59:19.090Z,100580.31
2023-10-14T07:01:45.904Z,100587.28
2023-10-14T07:04:12.744Z,100581.81
2023-10-14T07:06:40.927Z,100591.84
2023-10-14T07:09:07.584Z,100596.28
2023-10-14T07:11:35.846Z,100601.03
2023-10-14T07:14:02.540Z,100596.06
2023-10-14T07:16:29.185Z,100605.50
2023-10-14T07:18:56.805Z,100620.94
2023-10-14T07:21:23.498Z,100608.44
2023-10-14T07:23:51.569Z,100624.84
2023-10-14T07:26:18.286Z,100624.00
2023-10-14T07:28:45.377Z,100632.91
2023-10-14T07:31:12.671Z,100634.34
2023-10-14T07:33:39.715Z,100632.38
2023-10-14T07:36:06.937Z,100635.00
2023-10-14T07:38:34.953Z,100648.78
2023-10-14T07:41:03.110Z,100646.56
2023-10-14T07:43:30.117Z,100657.84
2023-10-14T07:45:56.903Z,100656.88
2023-10-14T07:48:27.448Z,100651.88
2023-10-14T07:50:54.621Z,100669.72
2023-10-14T07:53:21.300Z,100670.69
2023-10-14T07:55:49.179Z,100676.81
2023-10-14T07:58:19.262Z,100691.44
2023-10-14T08:00:47.270Z,100703.28
2023-10-14T08:03:14.765Z,100696.19
2023-10-14T08:05:55.751Z,100698.69
2023-10-14T08:08:23.997Z,100709.53
2023-10-14T08:10:52.214Z,100711.22
2023-10-14T08:13:20.964Z,100711.66
2023-10-14T08:15:49.339Z,100713.31
2023-10-14T08:18:15.983Z,100726.56
2023-10-14T08:20:42.646Z,100725.44
2023-10-14T08:23:10.910Z,100735.47
2023-10-14T08:25:37.636Z,100730.72
2023-10-14T08:28:04.867Z,100726.25
2023-10-14T08:30:32.796Z,100725.00
2023-10-14T08:33:00.276Z,100735.34
2023-10-14T08:35:26.892Z,100746.34
2023-10-14T08:37:54.336Z,100756.22
2023-10-14T08:40:23.312Z,100751.22
2023-10-14T08:42:51.120Z,100754.28
2023-10-14T08:45:19.280Z,100761.69
2023-10-14T08:47:48.638Z,100750.38
2023-10-14T08:50:16.823Z,100766.53
2023-10-14T08:52:45.041Z,100773.78
2023-10-14T08:55:12.129Z,100768.19
2023-10-14T08:57:38.798Z,100770.03
2023-10-14T09:00:06.756Z,100776.97
2023-10-14T09:02:33.450Z,100792.28
2023-10-14T09:05:02.922Z,100785.31
2023-10-14T09:07:31.159Z,100804.25
2023-10-14T09:09:57.875Z,100794.66
2023-10-14T09:12:24.612Z,100797.72
2023-10-14T09:14:51.322Z,100803.94
2023-10-14T09:17:18.051Z,100806.06
2023-10-14T09:19:45.706Z,100802.31
2023-10-14T09:22:23.735Z,100814.59
2023-10-14T09:24:51.281Z,100814.63
2023-10-14T09:27:18.659Z,100813.78
2023-10-14T09:29:46.102Z,100818.78
2023-10-14T09:32:12.873Z,100809.47
2023-10-14T09:34:39.679Z,100810.13
2023-10-14T09:37:07.873Z,100812.94
2023-10-14T09:39:36.037Z,100821.31
2023-10-14T09:42:03.403Z,100819.09
2023-10-14T09:44:30.533Z,100821.44
2023-10-14T09:46:58.941Z,100825.75
2023-10-14T09:49:26.043Z,100824.34
2023-10-14T09:51:52.719Z,100823.47
2023-10-14T09:54:19.649Z,100831.38
2023-10-14T09:56:47.874Z,100841.97
2023-10-14T09:59:15.898Z,100829.38
2023-10-14T10:01:42.596Z,100826.63
2023-10-14T10:04:12.564Z,100830.50
2023-10-14T10:06:58.542Z,100834.31
2023-10-14T10:09:52.486Z,100833.41
2023-10-14T10:12:20.974Z,100833.00
2023-10-14T10:14:49.016Z,100839.75
2023-10-14T10:17:16.909Z,100837.94
2023-10-14T10:20:04.955Z,100835.53
2023-10-14T10:22:39.494Z,100842.16
2023-10-14T10:25:06.888Z,100832.88
2023-10-14T10:27:34.875Z,100833.00
2023-10-14T10:30:04.775Z,100840.00
2023-10-14T10:32:32.691Z,100845.66
2023-10-14T10:35:16.367Z,100850.63
2023-10-14T10:37:45.896Z,100854.03
2023-10-14T10:40:12.978Z,100857.13
2023-10-14T10:42:41.983Z,100856.75
2023-10-14T10:45:09.190Z,100857.66
2023-10-14T10:47:44.087Z,100852.06
2023-10-14T10:50:17.033Z,100853.22
2023-10-14T10:52:43.646Z,100853.13
2023-10-14T10:55:10.429Z,100863.19
2023-10-14T10:57:38.711Z,100862.84
2023-10-14T11:00:10.211Z,100861.53
2023-10-14T11:02:37.111Z,100863.97
2023-10-14T11:05:05.483Z,100866.78
2023-10-14T11:07:32.174Z,100862.72
2023-10-14T11:09:58.907Z,100865.78
2023-10-14T11:12:25.559Z,100871.13
2023-10-14T11:14:52.245Z,100872.13
2023-10-14T11:17:23.730Z,100872.53
2023-10-14T11:19:50.638Z,100878.13
2023-10-14T11:22:17.290Z,100883.53
2023-10-14T11:24:44.029Z,100876.03
2023-10-14T11:27:12.154Z,100874.31
2023-10-14T11:29:41.471Z,100866.69
2023-10-14T11:32:09.845Z,100867.81
2023-10-14T11:34:38.140Z,100865.53
2023-10-14T11:37:07.416Z,100872.78
2023-10-14T11:39:34.126Z,100868.44
2023-10-14T11:42:01.578Z,100869.41
2023-10-14T11:44:29.288Z,100858.72
2023-10-14T11:46:57.355Z,100872.47
2023-10-14T11:49:27.371Z,100865.94
2023-10-14T11:51:55.718Z,100871.59
2023-10-14T11:54:22.434Z,100875.16
2023-10-14T11:56:49.087Z,100878.81
2023-10-14T11:59:15.693Z,100874.16
2023-10-14T12:01:42.311Z,100881.09
2023-10-14T12:04:09.863Z,100881.59
2023-10-14T12:06:36.603Z,100895.50
2023-10-14T12:09:04.958Z,100886.91
2023-10-14T12:11:31.639Z,100889.25
2023-10-14T12:13:58.317Z,100884.91
2023-10-14T12:16:25.059Z,100879.69
2023-10-14T12:18:54.067Z,100878.78
2023-10-14T12:21:20.741Z,100881.19
2023-10-14T12:23:47.549Z,100879.75
2023-10-14T12:26:30.977Z,100887.22
2023-10-14T12:29:02.283Z,100878.94
2023-10-14T12:31:29.087Z,100890.44
2023-10-14T12:33:55.855Z,100888.41
2023-10-14T12:36:22.584Z,100888.63
2023-10-14T12:38:49.306Z,100902.66
2023-10-14T12:41:17.278Z,100889.22
2023-10-14T12:43:43.902Z,100901.22
2023-10-14T12:46:10.686Z,100896.63
2023-10-14T12:48:37.998Z,100904.84
2023-10-14T12:51:04.619Z,100902.91
2023-10-14T12:53:32.371Z,100896.38
2023-10-14T12:55:59.066Z,100911.94
2023-10-14T12:58:27.082Z,100897.41
2023-10-14T13:00:53.816Z,100904.47
2023-10-14T13:03:20.503Z,100911.50
2023-10-14T13:05:47.196Z,100904.09
2023-10-14T13:08:14.092Z,100899.00
2023-10-14T13:10:40.741Z,100912.16
2023-10-14T13:13:07.431Z,100931.53
2023-10-14T13:15:37.893Z,100931.09
2023-10-14T13:18:05.823Z,100923.44
2023-10-14T13:20:36.388Z,100930.50
2023-10-14T13:23:04.570Z,100933.94
2023-10-14T13:25:33.270Z,100932.16
2023-10-14T13:27:59.954Z,100941.41
2023-10-14T13:30:26.657Z,100943.31
2023-10-14T13:32:58.544Z,100935.63
2023-10-14T13:35:25.367Z,100945.00
2023-10-14T13:37:52.305Z,100934.91
2023-10-14T13:40:29.771Z,100932.00
2023-10-14T13:43:07.817Z,100942.06
2023-10-14T13:45:34.481Z,100947.22
2023-10-14T13:48:02.489Z,100946.28
2023-10-14T13:50:30.486Z,100935.97
2023-10-14T13:52:57.076Z,100949.19
2023-10-14T13:55:24.011Z,100950.94
2023-10-14T13:57:50.811Z,100954.03
2023-10-14T14:00:18.812Z,100950.50
2023-10-14T14:02:46.698Z,100952.00
2023-10-14T14:05:15.973Z,100954.19
2023-10-14T14:07:45.261Z,100956.16
2023-10-14T14:10:12.087Z,100961.25
2023-10-14T14:12:38.832Z,100957.63
2023-10-14T14:15:06.706Z,100968.97
2023-10-14T14:17:33.514Z,100961.66
2023-10-14T14:20:01.535Z,100963.53
2023-10-14T14:22:29.619Z,100964.03
2023-10-14T14:24:56.338Z,100970.16
2023-10-14T14:27:23.775Z,100967.28
2023-10-14T14:29:51.283Z,100972.44
2023-10-14T14:32:18.068Z,100974.34
2023-10-14T14:34:44.912Z,100980.81
2023-10-14T14:37:11.611Z,100978.31
2023-10-14T14:39:39.625Z,100981.81
2023-10-14T14:42:06.437Z,100980.28
2023-10-14T14:44:33.064Z,100989.88
2023-10-14T14:46:59.725Z,100989.94
2023-10-14T14:49:27.778Z,100993.47
2023-10-14T14:51:54.433Z,100996.50
2023-10-14T14:54:21.053Z,100998.63
2023-10-14T14:56:51.822Z,101005.75
2023-10-14T14:59:18.453Z,101011.81
2023-10-14T15:01:45.151Z,101023.88
2023-10-14T15:04:11.957Z,101015.09
2023-10-14T15:06:38.651Z,101023.88
2023-10-14T15:09:05.445Z,101030.44
2023-10-14T15:11:32.079Z,101041.41
2023-10-14T15:14:00.082Z,101024.38
2023-10-14T15:16:40.658Z,101025.44
2023-10-14T15:19:09.465Z,101031.56
2023-10-14T15:21:36.326Z,101035.16
2023-10-14T15:24:03.405Z,101038.56
2023-10-14T15:26:30.821Z,101033.97
2023-10-14T15:28:57.437Z,101033.22
2023-10-14T15:31:25.513Z,101042.03
2023-10-14T15:33:52.284Z,101035.72
2023-10-14T15:36:18.944Z,101033.06
2023-10-14T15:38:45.563Z,101041.56
2023-10-14T15:41:12.233Z,101042.72
2023-10-14T15:43:38.876Z,101041.84
2023-10-14T15:46:05.597Z,101049.88
2023-10-14T15:48:35.988Z,101049.41
2023-10-14T15:51:02.633Z,101052.06
2023-10-14T15:53:29.469Z,101049.94
2023-10-14T15:55:56.260Z,101051.63
2023-10-14T15:58:34.760Z,101058.72
2023-10-14T16:01:07.646Z,101059.22
2023-10-14T16:03:35.722Z,101071.03
2023-10-14T16:06:02.416Z,101062.94
2023-10-14T16:08:29.090Z,101062.66
2023-10-14T16:10:55.757Z,101067.59
2023-10-14T16:13:22.391Z,101073.72
2023-10-14T16:15:49.870Z,101077.72
2023-10-14T16:18:16.506Z,101087.25
2023-10-14T16:20:44.532Z,101095.53
2023-10-14T16:23:11.963Z,101108.78
2023-10-14T16:25:38.614Z,101127.78
2023-10-14T16:28:05.584Z,101132.59
2023-10-14T16:30:32.483Z,101126.00
2023-10-14T16:33:00.215Z,101114.88
2023-10-14T16:35:28.939Z,101118.66
2023-10-14T16:37:58.471Z,101119.63
2023-10-14T16:40:25.870Z,101122.06
2023-10-14T16:42:53.904Z,101120.63
2023-10-14T16:45:21.013Z,101127.34
2023-10-14T16:47:48.130Z,101119.91
2023-10-14T16:50:15.119Z,101121.47
2023-10-14T16:52:42.302Z,101121.59
2023-10-14T16:55:11.029Z,101130.47
2023-10-14T16:57:37.632Z,101125.06
2023-10-14T17:00:06.810Z,101134.09
2023-10-14T17:02:33.522Z,101133.84
2023-10-14T17:05:00.351Z,101141.28
2023-10-14T17:07:27.158Z,101150.41
2023-10-14T17:09:53.767Z,101149.31
2023-10-14T17:12:21.819Z,101149.09
2023-10-14T17:14:48.451Z,101148.25
2023-10-14T17:17:15.054Z,101152.69
2023-10-14T17:19:41.756Z,101160.63
2023-10-14T17:22:14.187Z,101165.91
2023-10-14T17:24:40.890Z,101173.69
2023-10-14T17:27:09.883Z,101165.06
2023-10-14T17:29:40.760Z,101174.31
2023-10-14T17:32:07.482Z,101176.22
2023-10-14T17:34:34.603Z,101184.88
2023-10-14T17:37:01.277Z,101192.22
2023-10-14T17:39:27.928Z,101200.50
2023-10-14T17:41:54.563Z,101204.94
2023-10-14T17:44:21.178Z,101197.25
2023-10-14T17:46:49.223Z,101205.75
2023-10-14T17:49:16.077Z,101210.94
2023-10-14T17:51:44.940Z,101208.53
2023-10-14T17:54:11.525Z,101211.41
2023-10-14T17:56:38.082Z,101214.03
2023-10-14T17:59:04.713Z,101216.09
2023-10-14T18:01:31.602Z,101209.00
2023-10-14T18:03:59.670Z,101223.44
2023-10-14T18:06:26.252Z,101225.13
2023-10-14T18:08:52.831Z,101224.84
2023-10-14T18:11:19.406Z,101237.09
2023-10-14T18:13:48.305Z,101238.91
2023-10-14T18:16:14.905Z,101235.88
2023-10-14T18:18:41.649Z,101235.66
2023-10-14T18:21:10.095Z,101236.63
2023-10-14T18:23:36.704Z,101230.00
2023-10-14T18:26:06.237Z,101237.19
2023-10-14T18:28:33.689Z,101239.25
2023-10-14T18:31:00.408Z,101234.44
2023-10-14T18:33:27.168Z,101247.63
2023-10-14T18:35:54.656Z,101244.16
2023-10-14T18:38:22.723Z,101250.72
2023-10-14T18:40:49.352Z,101253.25
2023-10-14T18:43:16.979Z,101256.16
2023-10-14T18:45:43.771Z,101265.66
2023-10-14T18:48:10.600Z,101267.06
2023-10-14T18:50:38.155Z,101260.13
2023-10-14T18:53:05.937Z,101262.78
2023-10-14T18:55:34.001Z,101263.72
2023-10-14T18:58:01.923Z,101268.22
2023-10-14T19:00:32.592Z,101272.31
2023-10-14T19:02:59.349Z,101277.09
2023-10-14T19:05:27.256Z,101274.69
2023-10-14T19:07:53.972Z,101284.25
2023-10-14T19:10:20.733Z,101272.50
2023-10-14T19:12:50.299Z,101276.75
2023-10-14T19:15:17.033Z,101280.56
2023-10-14T19:17:44.060Z,101281.72
2023-10-14T19:20:11.865Z,101281.00
2023-10-14T19:22:38.533Z,101292.75
2023-10-14T19:25:05.955Z,101286.56
2023-10-14T19:27:39.430Z,101284.84
2023-10-14T19:30:13.497Z,101289.00
2023-10-14T19:32:40.600Z,101286.72
2023-10-14T19:35:08.712Z,101285.69
2023-10-14T19:37:36.019Z,101281.78
2023-10-14T19:40:03.794Z,101283.56
2023-10-14T19:42:30.413Z,101282.31
2023-10-14T19:44:57.028Z,101281.91
2023-10-14T19:47:29.779Z,101291.81
2023-10-14T19:49:56.846Z,101307.78
2023-10-14T19:52:23.622Z,101305.22
2023-10-14T19:54:50.358Z,101306.06
2023-10-14T19:57:17.037Z,101307.63
2023-10-14T19:59:43.706Z,101305.84
2023-10-14T20:02:10.576Z,101305.22
2023-10-14T20:04:38.701Z,101311.16
2023-10-14T20:07:05.427Z,101319.16
2023-10-14T20:09:32.108Z,101316.22
2023-10-14T20:11:58.741Z,101315.91
2023-10-14T20:14:25.682Z,101323.41
2023-10-14T20:16:55.595Z,101325.28
2023-10-14T20:19:22.275Z,101318.56
2023-10-14T20:21:50.279Z,101330.34
2023-10-14T20:24:16.921Z,101330.56
2023-10-14T20:26:43.584Z,101333.19
2023-10-14T20:29:10.191Z,101338.16
2023-10-14T20:31:36.969Z,101341.22
2023-10-14T20:34:03.695Z,101340.78
2023-10-14T20:36:30.367Z,101336.34
2023-10-14T20:38:58.431Z,101339.31
2023-10-14T20:41:25.103Z,101337.84
2023-10-14T20:43:51.760Z,101340.47
2023-10-14T20:46:18.630Z,101340.03
2023-10-14T20:48:45.411Z,101347.00
2023-10-14T20:51:12.372Z,101354.38
2023-10-14T20:53:39.129Z,101353.84
2023-10-14T20:56:10.871Z,101352.28
2023-10-14T20:58:37.751Z,101349.09
2023-10-14T21:01:04.508Z,101359.63
2023-10-14T21:03:31.417Z,101362.38
2023-10-14T21:05:59.084Z,101357.50
2023-10-14T21:08:26.102Z,101354.78
2023-10-14T21:10:53.893Z,101363.06
2023-10-14T21:13:23.030Z,101360.66
2023-10-14T21:15:57.267Z,101354.63
2023-10-14T21:18:23.941Z,101358.97
2023-10-14T21:20:50.586Z,101363.59
2023-10-14T21:23:17.239Z,101368.75
2023-10-14T21:25:44.093Z,101358.97
2023-10-14T21:28:11.128Z,101356.44
2023-10-14T21:30:39.881Z,101359.38
2023-10-14T21:33:07.044Z,101355.03
2023-10-14T21:35:34.144Z,101357.88
2023-10-14T21:38:00.941Z,101365.03
2023-10-14T21:40:27.899Z,101359.88
2023-10-14T21:42:55.439Z,101357.88
2023-10-14T21:45:24.350Z,101352.19
2023-10-14T21:47:53.590Z,101356.59
2023-10-14T21:50:20.926Z,101356.91
2023-10-14T21:52:50.452Z,101363.53
2023-10-14T21:55:17.615Z,101357.19
2023-10-14T21:57:44.328Z,101353.63
2023-10-14T22:00:12.997Z,101354.56
2023-10-14T22:02:39.855Z,101359.97
2023-10-14T22:05:08.202Z,101354.47
2023-10-14T22:07:35.839Z,101354.38
2023-10-14T22:10:02.614Z,101353.41
2023-10-14T22:12:29.323Z,101351.63
2023-10-14T22:14:55.987Z,101347.97
2023-10-14T22:17:22.783Z,101341.00
2023-10-14T22:19:49.491Z,101346.06
2023-10-14T22:22:18.364Z,101348.69
2023-10-14T22:24:45.003Z,101343.09
2023-10-14T22:27:11.671Z,101334.66
2023-10-14T22:29:38.403Z,101335.91
2023-10-14T22:32:05.493Z,101341.94
2023-10-14T22:34:32.224Z,101339.28
2023-10-14T22:36:59.035Z,101335.06
2023-10-14T22:39:27.026Z,101342.38
2023-10-14T22:41:56.066Z,101332.47
2023-10-14T22:44:23.795Z,101333.59
2023-10-14T22:46:50.789Z,101331.38
2023-10-14T22:49:17.497Z,101331.91
2023-10-14T22:51:44.303Z,101332.03
2023-10-14T22:54:10.938Z,101331.19
2023-10-14T22:56:38.959Z,101330.22
2023-10-14T22:59:05.628Z,101332.13
2023-10-14T23:01:32.426Z,101331.66
2023-10-14T23:03:59.136Z,101331.22
2023-10-14T23:06:25.889Z,101335.53
2023-10-14T23:08:52.577Z,101332.16
2023-10-14T23:11:19.247Z,101327.50
2023-10-14T23:13:47.365Z,101331.25
2023-10-14T23:16:14.069Z,101331.06
2023-10-14T23:18:40.738Z,101329.00
2023-10-14T23:21:10.618Z,101321.81
2023-10-14T23:23:37.635Z,101335.53
2023-10-14T23:26:04.310Z,101331.47
2023-10-14T23:28:30.999Z,101337.47
2023-10-14T23:30:59.095Z,101331.91
2023-10-14T23:33:25.827Z,101333.41
2023-10-14T23:35:52.576Z,101339.63
2023-10-14T23:38:19.221Z,101331.28
2023-10-14T23:40:45.905Z,101334.94
2023-10-14T23:43:12.618Z,101332.31
2023-10-14T23:45:39.317Z,101328.72
2023-10-14T23:48:07.913Z,101333.44
2023-10-14T23:50:34.583Z,101322.19
2023-10-14T23:53:01.234Z,101329.53
2023-10-14T23:55:28.205Z,101328.13
2023-10-14T23:57:55.175Z,101325.25
